createdAt,value
2022-12-26T00:02:30.494Z,100938.04
2022-12-26T00:07:36.464Z,100931.64
2022-12-26T00:12:42.252Z,100929.02
2022-12-26T00:17:48.105Z,100932.45
2022-12-26T00:22:54.959Z,100931.91
2022-12-26T00:28:00.803Z,100915.20
2022-12-26T00:33:07.000Z,100906.58
2022-12-26T00:38:12.956Z,100914.15
2022-12-26T00:43:18.846Z,100913.45
2022-12-26T00:48:24.646Z,100919.48
2022-12-26T00:53:32.420Z,100912.11
2022-12-26T00:58:42.147Z,100914.52
2022-12-26T01:03:50.585Z,100920.71
2022-12-26T01:08:56.700Z,100905.22
2022-12-26T01:14:02.324Z,100896.28
2022-12-26T01:19:08.578Z,100884.59
2022-12-26T01:24:14.416Z,100864.80
2022-12-26T01:29:20.482Z,100867.41
2022-12-26T01:34:26.330Z,100858.81
2022-12-26T01:39:32.444Z,100859.34
2022-12-26T01:45:05.094Z,100846.09
2022-12-26T01:50:26.044Z,100841.42
2022-12-26T01:55:33.799Z,100841.77
2022-12-26T02:00:40.242Z,100841.25
2022-12-26T02:05:46.374Z,100832.80
2022-12-26T02:10:57.609Z,100823.19
2022-12-26T02:16:04.415Z,100824.24
2022-12-26T02:21:38.448Z,100822.38
2022-12-26T02:27:28.088Z,100804.99
2022-12-26T02:33:03.919Z,100802.58
2022-12-26T02:38:23.345Z,100784.65
2022-12-26T02:43:37.708Z,100778.45
2022-12-26T02:48:55.128Z,100762.80
2022-12-26T02:54:29.577Z,100746.44
2022-12-26T03:00:05.461Z,100738.16
2022-12-26T03:05:37.561Z,100743.32
2022-12-26T03:11:02.627Z,100745.89
2022-12-26T03:16:31.719Z,100731.25
2022-12-26T03:21:42.778Z,100715.74
2022-12-26T03:26:52.988Z,100717.96
2022-12-26T03:31:59.695Z,100704.86
2022-12-26T03:37:26.307Z,100701.23
2022-12-26T03:43:19.400Z,100687.80
2022-12-26T03:48:51.370Z,100673.34
2022-12-26T03:54:24.625Z,100653.55
2022-12-26T03:59:58.434Z,100636.70
2022-12-26T04:05:26.760Z,100626.52
2022-12-26T04:10:55.952Z,100612.39
2022-12-26T04:16:23.722Z,100604.30
2022-12-26T04:21:55.861Z,100607.56
2022-12-26T04:27:26.555Z,100601.89
2022-12-26T04:32:57.067Z,100578.34
2022-12-26T04:38:24.195Z,100566.48
2022-12-26T04:43:51.521Z,100557.34
2022-12-26T04:49:17.492Z,100537.23
2022-12-26T04:54:23.452Z,100526.23
2022-12-26T04:59:29.149Z,100520.71
2022-12-26T05:04:54.284Z,100516.23
2022-12-26T05:10:00.226Z,100505.58
2022-12-26T05:15:07.295Z,100488.91
2022-12-26T05:20:33.339Z,100474.81
2022-12-26T05:26:01.061Z,100478.42
2022-12-26T05:31:08.028Z,100463.46
2022-12-26T05:36:15.029Z,100446.45
2022-12-26T05:41:20.786Z,100428.56
2022-12-26T05:46:26.764Z,100412.58
2022-12-26T05:51:32.857Z,100430.98
2022-12-26T05:56:40.902Z,100432.36
2022-12-26T06:01:49.055Z,100451.63
2022-12-26T06:06:56.748Z,100450.59
2022-12-26T06:12:02.687Z,100437.01
2022-12-26T06:17:08.425Z,100434.44
2022-12-26T06:22:14.169Z,100424.80
2022-12-26T06:27:19.956Z,100424.98
2022-12-26T06:32:26.037Z,100438.39
2022-12-26T06:37:32.679Z,100424.80
2022-12-26T06:42:38.700Z,100380.08
2022-12-26T06:47:45.240Z,100365.64
2022-12-26T06:52:51.076Z,100367.19
2022-12-26T06:57:56.899Z,100353.09
2022-12-26T07:03:02.738Z,100356.00
2022-12-26T07:08:09.288Z,100349.98
2022-12-26T07:13:14.955Z,100352.04
2022-12-26T07:18:20.933Z,100335.70
2022-12-26T07:23:27.099Z,100320.05
2022-12-26T07:28:33.116Z,100322.80
2022-12-26T07:33:39.079Z,100325.22
2022-12-26T07:38:45.071Z,100305.95
2022-12-26T07:43:51.045Z,100300.96
2022-12-26T07:48:56.805Z,100309.21
2022-12-26T07:54:08.903Z,100337.06
2022-12-26T07:59:18.130Z,100354.27
2022-12-26T08:04:23.892Z,100340.34
2022-12-26T08:09:29.582Z,100311.08
2022-12-26T08:14:36.626Z,100297.84
2022-12-26T08:19:42.493Z,100296.80
2022-12-26T08:24:48.224Z,100306.09
2022-12-26T08:29:53.863Z,100311.77
2022-12-26T08:34:59.620Z,100290.41
2022-12-26T08:40:26.816Z,100266.68
2022-12-26T08:45:42.353Z,100257.55
2022-12-26T08:50:48.193Z,100266.30
2022-12-26T08:55:55.057Z,100260.98
2022-12-26T09:01:10.117Z,100254.05
2022-12-26T09:06:17.717Z,100242.80
2022-12-26T09:11:27.015Z,100228.44
2022-12-26T09:16:40.030Z,100223.91
2022-12-26T09:21:48.546Z,100221.44
2022-12-26T09:26:54.180Z,100227.08
2022-12-26T09:32:00.899Z,100213.33
2022-12-26T09:37:06.792Z,100214.02
2022-12-26T09:42:28.383Z,100199.86
2022-12-26T09:47:37.746Z,100187.39
2022-12-26T09:52:48.761Z,100187.21
2022-12-26T09:57:59.388Z,100186.70
2022-12-26T10:03:08.081Z,100183.74
2022-12-26T10:08:30.578Z,100182.31
2022-12-26T10:13:43.839Z,100184.14
2022-12-26T10:18:58.962Z,100172.85
2022-12-26T10:24:15.890Z,100170.17
2022-12-26T10:29:25.879Z,100172.30
2022-12-26T10:34:37.088Z,100161.71
2022-12-26T10:39:47.902Z,100148.16
2022-12-26T10:44:53.754Z,100141.35
2022-12-26T10:50:00.139Z,100135.17
2022-12-26T10:55:28.144Z,100127.17
2022-12-26T11:00:35.820Z,100119.52
2022-12-26T11:11:21.068Z,100114.98
2022-12-26T11:16:29.661Z,100116.55
2022-12-26T11:21:35.610Z,100117.95
2022-12-26T11:26:41.745Z,100113.77
2022-12-26T11:31:57.151Z,100108.09
2022-12-26T11:37:05.654Z,100108.40
2022-12-26T11:42:19.069Z,100103.06
2022-12-26T11:47:28.926Z,100101.02
2022-12-26T11:52:41.227Z,100104.11
2022-12-26T11:58:02.092Z,100102.45
2022-12-26T12:03:16.579Z,100087.09
2022-12-26T12:08:44.061Z,100078.91
2022-12-26T12:14:06.075Z,100069.38
2022-12-26T12:19:36.019Z,100075.70
2022-12-26T12:24:53.152Z,100073.45
2022-12-26T12:30:15.503Z,100075.63
2022-12-26T12:35:41.227Z,100077.85
2022-12-26T12:40:57.564Z,100082.52
2022-12-26T12:46:17.446Z,100081.23
2022-12-26T12:51:42.275Z,100082.55
2022-12-26T12:57:02.156Z,100088.55
2022-12-26T13:02:20.520Z,100092.03
2022-12-26T13:07:31.473Z,100103.43
2022-12-26T13:12:42.077Z,100096.25
2022-12-26T13:17:53.486Z,100099.08
2022-12-26T13:23:37.482Z,100099.65
2022-12-26T13:28:53.351Z,100100.48
2022-12-26T13:33:59.655Z,100103.34
2022-12-26T13:39:34.040Z,100098.09
2022-12-26T13:44:40.403Z,100102.25
2022-12-26T13:49:46.653Z,100105.21
2022-12-26T13:55:23.270Z,100103.14
2022-12-26T14:00:45.228Z,100094.52
2022-12-26T14:06:07.265Z,100095.66
2022-12-26T14:11:26.822Z,100092.73
2022-12-26T14:16:44.015Z,100087.41
2022-12-26T14:21:59.472Z,100090.55
2022-12-26T14:27:25.106Z,100107.95
2022-12-26T14:32:45.470Z,100108.60
2022-12-26T14:38:05.170Z,100106.58
2022-12-26T14:43:29.152Z,100091.61
2022-12-26T14:48:57.344Z,100093.17
2022-12-26T14:54:51.254Z,100092.43
2022-12-26T15:00:28.799Z,100100.54
2022-12-26T15:05:37.864Z,100101.84
2022-12-26T15:11:26.131Z,100096.94
2022-12-26T15:16:56.536Z,100094.35
2022-12-26T15:22:25.321Z,100098.00
2022-12-26T15:28:07.480Z,100099.50
2022-12-26T15:33:23.894Z,100087.73
2022-12-26T15:38:40.447Z,100085.08
2022-12-26T15:43:57.733Z,100094.05
2022-12-26T15:49:32.934Z,100084.14
2022-12-26T15:55:04.910Z,100092.13
2022-12-26T16:00:15.608Z,100102.41
2022-12-26T16:05:32.590Z,100097.52
2022-12-26T16:10:39.494Z,100086.20
2022-12-26T16:15:49.806Z,100087.89
2022-12-26T16:21:17.494Z,100090.12
2022-12-26T16:26:29.008Z,100091.34
2022-12-26T16:31:34.998Z,100087.95
2022-12-26T16:36:42.053Z,100077.91
2022-12-26T16:42:02.598Z,100081.31
2022-12-26T16:47:13.507Z,100086.39
2022-12-26T16:52:33.833Z,100086.03
2022-12-26T16:57:44.579Z,100080.02
2022-12-26T17:02:57.348Z,100078.33
2022-12-26T17:08:06.009Z,100074.98
2022-12-26T17:13:21.443Z,100068.36
2022-12-26T17:18:41.431Z,100069.84
2022-12-26T17:24:05.268Z,100071.46
2022-12-26T17:29:37.265Z,100070.11
2022-12-26T17:34:43.757Z,100062.03
2022-12-26T17:40:02.410Z,100061.61
2022-12-26T17:45:14.508Z,100059.39
2022-12-26T17:50:21.402Z,100065.30
2022-12-26T17:55:28.008Z,100071.81
2022-12-26T18:00:33.958Z,100070.70
2022-12-26T18:05:40.756Z,100077.45
2022-12-26T18:10:46.516Z,100084.38
2022-12-26T18:15:53.554Z,100087.65
2022-12-26T18:20:59.233Z,100084.71
2022-12-26T18:26:10.844Z,100087.31
2022-12-26T18:31:17.672Z,100091.30
2022-12-26T18:36:31.192Z,100097.02
2022-12-26T18:41:37.013Z,100096.63
2022-12-26T18:46:42.611Z,100092.38
2022-12-26T18:51:48.332Z,100096.16
2022-12-26T18:56:54.088Z,100099.02
2022-12-26T19:02:00.384Z,100098.21
2022-12-26T19:07:06.311Z,100103.23
2022-12-26T19:12:12.316Z,100104.95
2022-12-26T19:17:18.556Z,100102.21
2022-12-26T19:22:24.666Z,100103.83
2022-12-26T19:27:30.400Z,100106.75
2022-12-26T19:32:36.269Z,100110.06
2022-12-26T19:37:42.465Z,100118.23
2022-12-26T19:42:48.417Z,100127.20
2022-12-26T19:47:54.485Z,100137.67
2022-12-26T19:53:00.343Z,100149.41
2022-12-26T19:58:06.090Z,100153.83
2022-12-26T20:03:12.087Z,100153.55
2022-12-26T20:08:17.958Z,100151.54
2022-12-26T20:13:23.737Z,100154.77
2022-12-26T20:18:29.535Z,100150.83
2022-12-26T20:23:35.967Z,100153.39
2022-12-26T20:28:42.334Z,100157.55
2022-12-26T20:33:50.067Z,100173.02
2022-12-26T20:38:58.520Z,100180.83
2022-12-26T20:44:04.524Z,100180.02
2022-12-26T20:49:11.017Z,100184.20
2022-12-26T20:54:17.441Z,100191.58
2022-12-26T20:59:23.823Z,100197.48
2022-12-26T21:04:29.564Z,100199.52
2022-12-26T21:09:36.839Z,100203.52
2022-12-26T21:14:45.409Z,100211.34
2022-12-26T21:19:51.072Z,100216.52
2022-12-26T21:24:56.823Z,100214.42
2022-12-26T21:30:02.719Z,100208.27
2022-12-26T21:35:08.935Z,100209.52
2022-12-26T21:40:15.264Z,100210.41
2022-12-26T21:45:21.993Z,100206.66
2022-12-26T21:50:27.956Z,100202.74
2022-12-26T21:55:37.820Z,100200.35
2022-12-26T22:00:44.795Z,100197.92
2022-12-26T22:05:50.883Z,100211.73
2022-12-26T22:11:15.063Z,100210.70
2022-12-26T22:16:20.809Z,100207.59
2022-12-26T22:21:27.056Z,100206.06
2022-12-26T22:26:32.872Z,100201.80
2022-12-26T22:31:39.762Z,100204.41
2022-12-26T22:36:45.770Z,100202.50
2022-12-26T22:41:51.442Z,100194.36
2022-12-26T22:46:57.883Z,100182.11
2022-12-26T22:52:03.789Z,100187.46
2022-12-26T22:57:09.644Z,100205.41
2022-12-26T23:02:15.490Z,100211.35
2022-12-26T23:07:23.470Z,100217.30
2022-12-26T23:12:45.513Z,100218.05
2022-12-26T23:18:25.262Z,100220.38
2022-12-26T23:23:32.480Z,100209.63
2022-12-26T23:28:56.995Z,100203.35
2022-12-26T23:34:09.528Z,100205.27
2022-12-26T23:39:15.460Z,100208.27
2022-12-26T23:44:21.799Z,100195.46
2022-12-26T23:49:27.759Z,100195.22
2022-12-26T23:54:33.517Z,100183.08
2022-12-26T23:59:39.408Z,100180.27
